WetterOnline ( https://www.wetteronline.ch )

Wetter aktuell Luckenwalde

Aktuelles Wetter: Baruth (55m)

6-stündlich | Neueste Meldungen
Ortszeit Temperatur Wetter
So, 25.08. 8:00 19.1° C wolkenlos
So, 25.08. 2:00 17.6° C fast wolkenlos
Sa, 24.08. 20:00 26.6° C wolkig
Sa, 24.08. 14:00 28.6° C leicht bewölkt
Sa, 24.08. 8:00 14.7° C wolkenlos
Sa, 24.08. 2:00 11.6° C wolkenlos
Fr, 23.08. 20:00 24.1° C wolkenlos
Fr, 23.08. 14:00 26.4° C wolkenlos
Ortszeit Temperatur Wetter
So, 25.08. 8:00 19.1° C wolkenlos
So, 25.08. 7:50 19.1° C wolkenlos
So, 25.08. 7:40 18.9° C wolkenlos
So, 25.08. 7:30 18.0° C leicht bewölkt
So, 25.08. 7:20 18.0° C leicht bewölkt
So, 25.08. 7:10 17.8° C leicht bewölkt
So, 25.08. 7:00 17.3° C bewölkt
So, 25.08. 6:30 16.8° C bewölkt
So, 25.08. 6:00 16.5° C wolkig
So, 25.08. 5:30 17.3° C leicht bewölkt
So, 25.08. 5:00 18.3° C bewölkt
Ortszeit Relative Feuchte Sichtweite
So, 25.08. 8:00 72% 35 km
So, 25.08. 2:00 79% 35 km
Sa, 24.08. 20:00 46% 45 km
Sa, 24.08. 14:00 40% 55 km
Sa, 24.08. 8:00 84% 19 km
Sa, 24.08. 2:00 92% 30 km
Fr, 23.08. 20:00 48% 55 km
Fr, 23.08. 14:00 39% 50 km
Ortszeit Relative Feuchte Sichtweite
So, 25.08. 8:00 72% 35 km
So, 25.08. 7:50 72% -
So, 25.08. 7:40 72% -
So, 25.08. 7:30 76% 40 km
So, 25.08. 7:20 76% -
So, 25.08. 7:10 76% -
So, 25.08. 7:00 78% 30 km
So, 25.08. 6:30 80% 35 km
So, 25.08. 6:00 80% 35 km
So, 25.08. 5:30 77% 35 km
So, 25.08. 5:00 73% 40 km
Ortszeit Niederschlagsmenge Niederschlagsart
So, 25.08. 8:00 0.0 l/m2 in 12 Std. -
So, 25.08. 2:00 0.0 l/m2 in 6 Std. -
Sa, 24.08. 20:00 0.0 l/m2 in 12 Std. -
Sa, 24.08. 14:00 0.0 l/m2 in 6 Std. -
Sa, 24.08. 8:00 0.0 l/m2 in 12 Std. -
Sa, 24.08. 2:00 0.0 l/m2 in 6 Std. -
Fr, 23.08. 20:00 0.0 l/m2 in 12 Std. -
Fr, 23.08. 14:00 0.0 l/m2 in 6 Std. -
Ortszeit Niederschlagsmenge Niederschlagsart
So, 25.08. 8:00 0.0 l/m2 in 1 Std. -
So, 25.08. 7:50 keine Meldung -
So, 25.08. 7:40 keine Meldung -
So, 25.08. 7:30 0.0 l/m2 in 1 Std. -
So, 25.08. 7:20 keine Meldung -
So, 25.08. 7:10 keine Meldung -
So, 25.08. 7:00 0.0 l/m2 in 1 Std. -
So, 25.08. 6:30 0.0 l/m2 in 1 Std. -
So, 25.08. 6:00 0.0 l/m2 in 1 Std. -
So, 25.08. 5:30 0.0 l/m2 in 1 Std. -
So, 25.08. 5:00 0.0 l/m2 in 1 Std. -
Ortszeit Stärke Spitze Richtung
km/h Bft. km/h Grad Sektor
So, 25.08. 8:00 11 2 14 110° O
So, 25.08. 2:00 6 1 17 90° O
Sa, 24.08. 20:00 9 2 33 80° O
Sa, 24.08. 14:00 17 3 31 120° SO
Sa, 24.08. 8:00 4 1 7 120° SO
Sa, 24.08. 2:00 4 1 11 90° O
Fr, 23.08. 20:00 6 1 22 120° SO
Fr, 23.08. 14:00 7 2 25 200° S
Ortszeit Stärke Spitze Richtung
km/h Bft. km/h Grad Sektor
So, 25.08. 8:00 11 2 14 110° O
So, 25.08. 7:50 11 2 - 110° O
So, 25.08. 7:40 9 2 - 100° O
So, 25.08. 7:30 7 2 14 100° O
So, 25.08. 7:20 7 2 - 100° O
So, 25.08. 7:10 9 2 - 100° O
So, 25.08. 7:00 7 2 11 90° O
So, 25.08. 6:30 7 2 11 80° O
So, 25.08. 6:00 6 1 13 90° O
So, 25.08. 5:30 7 2 11 100° O
So, 25.08. 5:00 7 2 14 80° O
Ortszeit Untergrenze Bedeckung Gattung
total tief tief mittel hoch
So, 25.08. 8:00 - 0/8 0/8 - - -
So, 25.08. 2:00 9000 m 1/8 0/8 - - -
Sa, 24.08. 20:00 1500 m 6/8 5/8 - - -
Sa, 24.08. 14:00 1500 m 4/8 4/8 - - -
Sa, 24.08. 8:00 - 0/8 0/8 - - -
Sa, 24.08. 2:00 - 0/8 0/8 - - -
Fr, 23.08. 20:00 - 0/8 0/8 - - -
Fr, 23.08. 14:00 - 0/8 0/8 - - -
Ortszeit Bedeckungsgrad in Achtel und Wolkenuntergrenze
So, 25.08. 8:00 keine Wolken
So, 25.08. 7:50 keine Wolken
So, 25.08. 7:40 keine Wolken
So, 25.08. 7:30 2(2100m)
So, 25.08. 7:20 2(2100m)
So, 25.08. 7:10 3(1800m) 4(2400m)
So, 25.08. 7:00 5(1800m) 7(2400m)
So, 25.08. 6:30 7(2100m)
So, 25.08. 6:00 5(1800m)
So, 25.08. 5:30 3(2100m)
So, 25.08. 5:00 6(2100m) 7(2700m)
Ortszeit Luftdruck NN (hPa) Tendenz (hPa in 3 Std.)
So, 25.08. 8:00 1021 + 0,4
So, 25.08. 2:00 1021 - 0,4
Sa, 24.08. 20:00 1021 - 0,6
Sa, 24.08. 14:00 1023 - 1,3
Sa, 24.08. 8:00 1025 0,0
Sa, 24.08. 2:00 1025 - 0,1
Fr, 23.08. 20:00 1024 - 0,5
Fr, 23.08. 14:00 1026 - 1,3
Ortszeit Luftdruck NN (hPa) Tendenz (hPa in 3 Std.)
So, 25.08. 8:00 1021 + 0,4
So, 25.08. 7:50 1021 keine Meldung
So, 25.08. 7:40 1021 keine Meldung
So, 25.08. 7:30 1021 + 0,3
So, 25.08. 7:20 1021 keine Meldung
So, 25.08. 7:10 1021 keine Meldung
So, 25.08. 7:00 1021 + 0,4
So, 25.08. 6:30 1021 + 0,1
So, 25.08. 6:00 1021 - 0,2
So, 25.08. 5:30 1021 - 0,4
So, 25.08. 5:00 1021 - 0,5
Ortszeit Schneehöhe (cm)
So, 25.08. 8:00 -
So, 25.08. 2:00 -
Sa, 24.08. 20:00 -
Sa, 24.08. 14:00 -
Sa, 24.08. 8:00 -
Sa, 24.08. 2:00 -
Fr, 23.08. 20:00 -
Fr, 23.08. 14:00 -
Ortszeit Schneehöhe (cm)
So, 25.08. 8:00 -
So, 25.08. 7:50 -
So, 25.08. 7:40 -
So, 25.08. 7:30 -
So, 25.08. 7:20 -
So, 25.08. 7:10 -
So, 25.08. 7:00 -
So, 25.08. 6:30 -
So, 25.08. 6:00 -
So, 25.08. 5:30 -
So, 25.08. 5:00 -
Link zu dieser Seite / Seite empfehlen

Das Wetter in ...